Fowlerton, Texas
Current Conditions -  °F | °C
As of 4:53 PM on Tuesday 21 Oct 2014 (Local Time) from KCOT Reporting Station
Clear Clear  
Wind Chill: 88°   Ceiling: Unl
Heat Index: 88°   Visibility: 10mi
Dew Point: 55°   Wind: 10mph
Humidity: 32%   Direction: 110°ESE
Pressure: 29.94"   Gusts: NA
Location:  28.47°N, 98.81°W
Report Text: KCOT 212153Z AUTO 11009KT 10SM CLR 31/13 A2994 RMK AO2 SLP130 T03110128
Loading
Personal Weather Stations






























Interactive Weather Map
Tropical Storm Tracking
New forecast layout! Learn more

10-Day Weather Forecast

Advertisements
Track Severe Weather on mobile